Time;durP1;ratioP1;P1;durP2;ratioP2;P2;SDS_P1;SDS_P2;PMS_P1;PMS_P2;Temp;Humidity;BMP_temperature;BMP_pressure;BME280_temperature;BME280_humidity;BME280_pressure;Samples;Min_cycle;Max_cycle;Signal;HPM_P1;HPM_P2
2021/09/04 00:02:02;;;;;;;31.23;13.80;;;;;;;11.24;76.28;98996.13;2110121;84;21010;-68
2021/09/04 00:05:03;;;;;;;33.63;14.23;;;;;;;11.22;76.49;98997.54;2110096;84;21099;-68
2021/09/04 00:08:05;;;;;;;30.85;13.98;;;;;;;11.24;76.66;98999.59;2110031;84;21521;-67
2021/09/04 00:11:06;;;;;;;31.33;13.00;;;;;;;11.21;76.44;99002.41;2110286;84;21091;-67
2021/09/04 00:14:08;;;;;;;35.80;16.97;;;;;;;11.14;76.33;98998.95;2110147;84;20979;-67
2021/09/04 00:17:09;;;;;;;34.83;17.00;;;;;;;11.12;76.62;99000.80;2109922;84;21018;-67
2021/09/04 00:20:10;;;;;;;37.60;17.95;;;;;;;11.15;76.87;98994.91;2109855;84;21023;-67
2021/09/04 00:23:12;;;;;;;50.75;21.33;;;;;;;11.13;76.81;99007.27;2110295;84;20999;-68
2021/09/04 00:26:13;;;;;;;52.30;20.97;;;;;;;11.22;77.11;99013.74;2109839;84;21050;-68
2021/09/04 00:29:15;;;;;;;90.53;37.60;;;;;;;11.14;76.41;99015.53;2110277;84;21533;-67
2021/09/04 00:32:16;;;;;;;64.13;25.97;;;;;;;11.08;76.51;99006.72;2110078;84;20994;-67
2021/09/04 00:35:18;;;;;;;58.53;25.17;;;;;;;10.96;77.00;99001.75;2110318;84;21002;-66
2021/09/04 00:38:19;;;;;;;74.15;28.02;;;;;;;11.01;76.99;99006.71;2110283;84;21066;-65
2021/09/04 00:41:20;;;;;;;67.15;27.13;;;;;;;11.00;76.56;99004.53;2110275;84;21015;-65
2021/09/04 00:44:22;;;;;;;55.85;23.95;;;;;;;10.98;76.68;99005.11;2110556;84;20999;-66
2021/09/04 00:47:23;;;;;;;46.55;19.70;;;;;;;11.09;76.54;99013.64;2110043;84;20978;-66
2021/09/04 00:50:25;;;;;;;63.90;25.00;;;;;;;11.15;76.71;99012.42;2110059;84;21584;-66
2021/09/04 00:53:27;;;;;;;64.65;25.75;;;;;;;11.22;76.52;99017.68;2109829;84;21577;-68
2021/09/04 00:56:29;;;;;;;54.60;23.45;;;;;;;11.22;76.63;99014.60;2110217;84;20991;-66
2021/09/04 00:59:30;;;;;;;54.03;25.57;;;;;;;11.26;76.64;99016.56;2109950;84;21002;-66
2021/09/04 01:02:32;;;;;;;57.23;27.95;;;;;;;11.41;77.02;99017.42;2110376;84;20991;-67
2021/09/04 01:05:34;;;;;;;56.18;27.48;;;;;;;11.51;76.82;99011.14;2109805;84;21043;-66
2021/09/04 01:08:35;;;;;;;49.83;22.48;;;;;;;11.53;76.95;99014.50;2109955;84;21545;-66
2021/09/04 01:11:36;;;;;;;43.48;21.10;;;;;;;11.56;77.46;99017.77;2110290;84;20994;-67
2021/09/04 01:14:38;;;;;;;37.17;19.83;;;;;;;11.59;77.51;99014.11;2110271;84;21660;-67
2021/09/04 01:17:40;;;;;;;35.60;18.15;;;;;;;11.63;77.71;99017.41;2110135;84;21018;-66
2021/09/04 01:20:41;;;;;;;39.08;17.48;;;;;;;11.66;77.66;99021.16;2109916;84;21624;-67
2021/09/04 01:23:43;;;;;;;42.90;19.55;;;;;;;11.70;77.52;99014.29;2110267;84;20998;-67
2021/09/04 01:26:44;;;;;;;57.20;24.70;;;;;;;11.66;77.03;99015.42;2110242;84;21119;-66
2021/09/04 01:29:46;;;;;;;49.80;20.12;;;;;;;11.56;76.83;99011.68;2110093;84;20998;-68
2021/09/04 01:32:48;;;;;;;;;;;;;;;11.44;77.00;99007.55;2112581;84;21010;-68
2021/09/04 01:35:49;;;;;;;54.55;23.85;;;;;;;11.42;76.80;99008.14;2110013;84;20163;-68
2021/09/04 01:38:51;;;;;;;51.18;21.65;;;;;;;11.38;76.72;99011.88;2109979;84;21485;-68
2021/09/04 01:41:52;;;;;;;49.47;20.37;;;;;;;11.34;76.69;99007.75;2110342;84;21066;-68
2021/09/04 01:44:54;;;;;;;45.30;19.90;;;;;;;11.30;76.52;99006.25;2110199;84;21018;-67
2021/09/04 01:47:55;;;;;;;42.07;18.60;;;;;;;11.29;76.94;99009.80;2110307;84;21085;-68
2021/09/04 01:50:57;;;;;;;47.48;20.40;;;;;;;11.32;77.15;99004.39;2110283;84;20987;-67
2021/09/04 01:53:58;;;;;;;51.90;20.90;;;;;;;11.36;77.00;99004.55;2110191;84;21493;-67
2021/09/04 01:57:00;;;;;;;51.80;21.30;;;;;;;11.28;76.74;98998.95;2110369;84;21022;-67
2021/09/04 02:00:01;;;;;;;49.90;21.73;;;;;;;11.26;76.92;98999.49;2110196;84;21062;-67
2021/09/04 02:03:03;;;;;;;49.20;20.60;;;;;;;11.24;77.21;98999.59;2109910;84;21999;-68
2021/09/04 02:06:04;;;;;;;45.83;22.07;;;;;;;11.15;76.76;98993.59;2110250;84;21017;-67
2021/09/04 02:09:06;;;;;;;53.23;24.33;;;;;;;11.08;76.77;98990.48;2110202;84;21014;-68
2021/09/04 02:12:07;;;;;;;53.95;24.77;;;;;;;11.12;77.27;98994.23;2110358;84;21025;-68
2021/09/04 02:15:08;;;;;;;52.23;24.80;;;;;;;11.14;76.98;98998.47;2110238;84;21039;-68
2021/09/04 02:18:10;;;;;;;49.00;20.83;;;;;;;11.21;77.26;99000.26;2109850;84;21049;-68
2021/09/04 02:21:11;;;;;;;32.98;14.70;;;;;;;11.22;77.33;99000.16;2110179;84;21082;-68
2021/09/04 02:24:13;;;;;;;36.90;15.87;;;;;;;11.24;76.59;99006.16;2110233;84;21493;-68
2021/09/04 02:27:14;;;;;;;38.73;17.13;;;;;;;11.13;76.80;99005.13;2110443;84;21014;-67
2021/09/04 02:30:16;;;;;;;37.63;16.85;;;;;;;10.96;77.19;99005.68;2110234;84;21010;-68
2021/09/04 02:33:17;;;;;;;44.53;19.93;;;;;;;10.89;77.62;99015.69;2110000;84;21510;-67
2021/09/04 02:36:19;;;;;;;46.77;21.60;;;;;;;10.85;77.49;99010.72;2110345;84;20998;-67
2021/09/04 02:39:20;;;;;;;47.23;23.05;;;;;;;10.84;77.64;99007.23;2110081;84;21030;-68
2021/09/04 02:42:22;;;;;;;48.43;22.53;;;;;;;10.84;77.64;99007.23;2110152;84;21568;-67
2021/09/04 02:45:23;;;;;;;46.73;19.73;;;;;;;10.84;77.49;99009.02;2109960;84;21079;-67
2021/09/04 02:48:25;;;;;;;38.13;17.87;;;;;;;10.82;77.59;99011.73;2110175;84;21609;-68
2021/09/04 02:51:26;;;;;;;34.30;14.83;;;;;;;10.86;77.69;99018.50;2110313;84;20972;-68
2021/09/04 02:54:28;;;;;;;38.15;17.23;;;;;;;10.84;77.62;99022.14;2109945;84;20988;-67
2021/09/04 02:57:29;;;;;;;39.98;19.62;;;;;;;10.83;77.50;99016.06;2110009;84;21022;-67
2021/09/04 03:00:30;;;;;;;40.05;18.62;;;;;;;10.86;77.63;99021.57;2109928;84;21082;-67
2021/09/04 03:03:33;;;;;;;;;;;;;;;10.99;78.02;99033.50;2112043;84;21152;-68
2021/09/04 03:06:34;;;;;;;36.17;15.85;;;;;;;10.99;77.53;99031.73;2109354;84;20121;-67
2021/09/04 03:09:36;;;;;;;39.67;17.67;;;;;;;11.07;77.41;99028.64;2109436;83;21022;-67
2021/09/04 03:12:37;;;;;;;38.80;18.50;;;;;;;11.02;77.42;99032.00;2109354;83;21082;-67
2021/09/04 03:15:39;;;;;;;42.03;20.92;;;;;;;11.15;77.90;99037.36;2109590;83;21059;-68
2021/09/04 03:18:40;;;;;;;39.48;17.42;;;;;;;11.29;77.11;99034.75;2109582;83;21122;-68
2021/09/04 03:21:41;;;;;;;41.75;20.00;;;;;;;11.16;76.70;99033.81;2109327;83;21604;-68
2021/09/04 03:24:43;;;;;;;52.03;23.05;;;;;;;11.08;76.75;99037.73;2109386;83;20959;-68
2021/09/04 03:27:44;;;;;;;47.27;21.57;;;;;;;10.97;77.02;99032.76;2109303;83;21606;-67
2021/09/04 03:30:46;;;;;;;46.73;21.85;;;;;;;10.90;77.17;99024.39;2109426;83;20994;-67
2021/09/04 03:33:47;;;;;;;45.37;21.03;;;;;;;10.91;77.63;99038.73;2109247;84;21640;-67
2021/09/04 03:36:49;;;;;;;42.98;19.32;;;;;;;10.98;77.62;99035.77;2109690;83;21002;-67
2021/09/04 03:39:50;;;;;;;34.75;16.00;;;;;;;10.99;77.61;99033.05;2109257;83;21131;-66
2021/09/04 03:42:51;;;;;;;34.35;17.02;;;;;;;11.08;77.68;99035.11;2109405;83;21541;-67
2021/09/04 03:45:53;;;;;;;44.10;19.62;;;;;;;10.85;77.42;99044.83;2109288;83;21102;-67
2021/09/04 03:48:59;;;;;;;39.08;17.48;;;;;;;10.55;78.41;99050.91;2109193;83;21637;-70
2021/09/04 03:52:00;;;;;;;37.67;18.40;;;;;;;10.54;78.37;99054.46;2089946;84;21514;-68
2021/09/04 03:55:01;;;;;;;33.42;15.10;;;;;;;10.66;78.49;99052.91;2089792;84;20999;-68
2021/09/04 03:58:02;;;;;;;38.13;18.60;;;;;;;10.66;78.11;99062.09;2107425;83;21065;-65
2021/09/04 04:01:04;;;;;;;38.70;16.00;;;;;;;10.56;78.28;99062.63;2106536;83;21486;-68
2021/09/04 04:04:05;;;;;;;37.00;17.35;;;;;;;10.60;78.20;99063.76;2107097;83;21101;-68
2021/09/04 04:07:07;;;;;;;42.80;18.40;;;;;;;10.71;78.20;99063.98;2107601;84;21626;-69
2021/09/04 04:10:08;;;;;;;39.80;18.70;;;;;;;10.75;78.24;99068.12;2107982;84;21025;-68
2021/09/04 04:13:09;;;;;;;39.83;19.37;;;;;;;10.81;78.38;99068.24;2108649;84;21081;-68
2021/09/04 04:16:11;;;;;;;42.90;20.25;;;;;;;10.89;78.37;99066.03;2110349;84;20983;-69
2021/09/04 04:19:12;;;;;;;42.55;21.60;;;;;;;11.13;78.95;99065.50;2110201;84;20983;-67
2021/09/04 04:22:14;;;;;;;40.05;19.07;;;;;;;11.23;78.09;99059.62;2109877;84;21541;-68
2021/09/04 04:25:16;;;;;;;35.33;17.55;;;;;;;11.24;78.25;99069.64;2109914;84;21045;-68
2021/09/04 04:28:17;;;;;;;38.98;17.10;;;;;;;11.46;78.03;99064.41;2110334;84;21018;-67
2021/09/04 04:31:18;;;;;;;32.03;14.83;;;;;;;11.41;77.24;99064.22;2110458;84;20978;-69
2021/09/04 04:34:20;;;;;;;36.73;17.65;;;;;;;11.34;77.06;99067.32;2110012;84;21118;-66
2021/09/04 04:37:21;;;;;;;39.58;16.85;;;;;;;11.33;77.19;99061.20;2110200;84;20990;-68
2021/09/04 04:40:23;;;;;;;36.15;18.07;;;;;;;11.31;77.38;99066.20;2110090;84;20974;-68
2021/09/04 04:43:24;;;;;;;39.67;18.15;;;;;;;11.32;77.44;99060.84;2110081;84;21490;-67
2021/09/04 04:46:26;;;;;;;33.60;15.85;;;;;;;11.35;77.54;99068.54;2110135;84;20995;-68
2021/09/04 04:49:27;;;;;;;36.25;17.65;;;;;;;11.35;77.76;99068.54;2110046;84;21046;-68
2021/09/04 04:52:28;;;;;;;36.10;16.02;;;;;;;11.46;77.77;99078.37;2110436;84;21022;-66
2021/09/04 04:55:30;;;;;;;34.43;15.83;;;;;;;11.42;77.41;99082.98;2110416;84;21015;-69
2021/09/04 04:58:31;;;;;;;39.13;17.45;;;;;;;11.44;77.55;99086.35;2110039;84;21038;-65
2021/09/04 05:01:33;;;;;;;36.38;17.02;;;;;;;11.57;77.77;99090.39;2110166;84;21034;-66
2021/09/04 05:04:34;;;;;;;34.80;15.45;;;;;;;11.77;77.51;99085.23;2109806;83;21117;-66
2021/09/04 05:07:35;;;;;;;38.15;16.17;;;;;;;11.91;77.26;99085.70;2110279;84;21463;-68
2021/09/04 05:10:37;;;;;;;33.55;14.63;;;;;;;12.07;77.65;99082.15;2110053;84;21006;-67
2021/09/04 05:13:38;;;;;;;33.67;14.55;;;;;;;12.26;77.32;99083.13;2110288;84;21474;-65
2021/09/04 05:16:40;;;;;;;30.60;14.13;;;;;;;12.27;77.10;99085.66;2110395;84;21086;-68
2021/09/04 05:19:41;;;;;;;31.65;14.25;;;;;;;12.30;77.18;99084.63;2110169;84;20993;-68
2021/09/04 05:22:46;;;;;;;31.55;14.70;;;;;;;12.32;77.29;99085.84;2109856;84;21047;-68
2021/09/04 05:25:46;;;;;;;30.82;13.30;;;;;;;12.51;77.36;99089.44;2090629;84;21011;-66
2021/09/04 05:28:48;;;;;;;29.70;13.53;;;;;;;12.64;77.36;99085.05;2110287;84;21036;-66
2021/09/04 05:31:49;;;;;;;31.30;14.20;;;;;;;12.70;77.11;99089.94;2110353;84;20964;-65
2021/09/04 05:34:51;;;;;;;27.98;12.55;;;;;;;12.73;77.32;99088.87;2110397;84;21003;-69
2021/09/04 05:37:52;;;;;;;29.73;13.53;;;;;;;13.01;77.29;99094.47;2110460;84;21034;-68
2021/09/04 05:40:53;;;;;;;30.70;13.20;;;;;;;13.23;77.60;99096.53;2110350;84;21037;-66
2021/09/04 05:43:55;;;;;;;29.05;13.03;;;;;;;13.45;77.42;99097.24;2110087;84;21612;-68
2021/09/04 05:46:57;;;;;;;32.05;13.65;;;;;;;13.55;77.28;99100.09;2110465;84;20991;-65
2021/09/04 05:49:58;;;;;;;30.82;13.40;;;;;;;13.62;77.28;99101.36;2110231;84;21509;-68
2021/09/04 05:53:00;;;;;;;32.33;13.77;;;;;;;13.62;77.84;99097.41;2110526;84;21002;-68
2021/09/04 05:56:01;;;;;;;30.43;14.13;;;;;;;13.63;78.00;99092.51;2110233;84;21018;-67
2021/09/04 05:59:03;;;;;;;31.83;14.17;;;;;;;13.69;78.62;99096.48;2110364;84;20983;-69
2021/09/04 06:02:04;;;;;;;32.42;14.75;;;;;;;13.74;79.03;99094.38;2110313;84;21409;-67
2021/09/04 06:05:05;;;;;;;32.53;14.13;;;;;;;13.85;78.94;99093.64;2110100;83;21573;-66
2021/09/04 06:08:07;;;;;;;33.00;16.50;;;;;;;13.96;78.93;99091.55;2110290;84;21059;-65
2021/09/04 06:11:08;;;;;;;31.27;14.50;;;;;;;13.97;78.85;99094.56;2110303;84;21057;-66
2021/09/04 06:14:10;;;;;;;32.03;14.50;;;;;;;14.04;79.01;99097.13;2110584;84;21022;-67
2021/09/04 06:17:13;;;;;;;32.40;14.73;;;;;;;14.16;78.76;99100.20;2090449;84;21062;-66
2021/09/04 06:20:15;;;;;;;30.35;14.70;;;;;;;14.25;78.56;99103.14;2109778;84;21617;-66
2021/09/04 06:23:16;;;;;;;30.85;13.53;;;;;;;14.50;79.89;99108.33;2109877;84;21046;-68
2021/09/04 06:26:18;;;;;;;30.37;13.83;;;;;;;14.71;77.87;99109.92;2110028;84;21557;-69
2021/09/04 06:29:20;;;;;;;28.23;11.97;;;;;;;14.75;77.92;99121.08;2110270;84;20998;-67
2021/09/04 06:32:22;;;;;;;31.07;13.68;;;;;;;14.75;76.73;99113.16;2110066;84;21066;-67
2021/09/04 06:35:23;;;;;;;28.67;11.95;;;;;;;14.72;77.47;99108.97;2110082;84;21510;-66
2021/09/04 06:38:25;;;;;;;27.90;12.07;;;;;;;14.89;77.38;99109.02;2109875;84;21062;-68
2021/09/04 06:41:26;;;;;;;30.77;13.53;;;;;;;15.06;77.02;99110.89;2110169;84;21102;-67
2021/09/04 06:44:27;;;;;;;30.50;13.37;;;;;;;15.13;77.09;99117.39;2110317;84;21042;-66
2021/09/04 06:47:29;;;;;;;28.30;12.60;;;;;;;15.23;76.94;99121.02;2110065;84;21095;-68
2021/09/04 06:50:30;;;;;;;29.47;12.83;;;;;;;15.31;75.65;99121.75;2110189;84;20960;-65
2021/09/04 06:53:32;;;;;;;31.07;12.40;;;;;;;15.20;75.44;99129.64;2110154;84;21063;-69
2021/09/04 06:56:33;;;;;;;27.70;12.07;;;;;;;15.07;75.48;99131.91;2110199;84;21521;-66
2021/09/04 06:59:35;;;;;;;27.63;11.00;;;;;;;15.01;75.76;99123.59;2110187;84;21070;-68
2021/09/04 07:02:36;;;;;;;28.87;11.90;;;;;;;15.27;76.61;99125.61;2110176;84;21033;-69
2021/09/04 07:05:37;;;;;;;25.23;10.67;;;;;;;15.38;75.33;99123.46;2109820;84;21516;-68
2021/09/04 07:08:39;;;;;;;26.25;10.63;;;;;;;15.70;75.94;99130.25;2109413;84;21002;-69
2021/09/04 07:11:40;;;;;;;23.50;9.23;;;;;;;16.02;74.70;99135.31;2109701;83;21018;-69
2021/09/04 07:14:42;;;;;;;25.07;8.90;;;;;;;16.20;72.62;99133.86;2109469;84;21023;-68
2021/09/04 07:17:43;;;;;;;23.93;8.90;;;;;;;16.16;72.31;99136.42;2109556;83;21929;-69
2021/09/04 07:20:45;;;;;;;21.87;8.17;;;;;;;16.32;72.48;99135.17;2109654;83;21085;-69
2021/09/04 07:23:46;;;;;;;21.63;8.00;;;;;;;16.33;71.37;99136.38;2109572;84;21739;-68
2021/09/04 07:26:47;;;;;;;21.42;7.25;;;;;;;16.53;71.45;99134.77;2109433;83;21557;-69
2021/09/04 07:29:49;;;;;;;23.62;8.20;;;;;;;16.78;70.89;99140.25;2109468;83;21496;-66
2021/09/04 07:32:50;;;;;;;23.53;8.30;;;;;;;17.06;71.20;99147.27;2109564;83;21016;-69
2021/09/04 07:35:52;;;;;;;24.63;8.18;;;;;;;17.29;70.48;99147.17;2109392;83;21629;-69
2021/09/04 07:38:53;;;;;;;21.62;7.17;;;;;;;17.32;69.49;99149.56;2109822;83;21447;-70
2021/09/04 07:41:55;;;;;;;23.45;7.90;;;;;;;17.43;68.75;99148.67;2109254;83;21065;-66
2021/09/04 07:44:56;;;;;;;24.85;9.03;;;;;;;17.63;69.59;99156.27;2110314;83;20947;-69
2021/09/04 07:47:58;;;;;;;23.70;7.72;;;;;;;17.78;69.50;99149.63;2109705;83;20960;-67
2021/09/04 07:50:59;;;;;;;23.65;8.55;;;;;;;17.84;68.67;99150.44;2109599;83;21039;-70
2021/09/04 07:54:00;;;;;;;21.35;7.25;;;;;;;18.10;69.33;99152.69;2109605;84;20990;-67
2021/09/04 07:57:02;;;;;;;22.23;7.33;;;;;;;18.33;68.03;99157.30;2136129;82;20961;-70
2021/09/04 08:00:03;;;;;;;21.40;7.08;;;;;;;18.35;65.28;99154.51;2145305;82;21262;-69
2021/09/04 08:03:05;;;;;;;21.42;7.45;;;;;;;18.27;64.40;99155.66;2145595;82;21040;-69
2021/09/04 08:06:06;;;;;;;22.93;6.67;;;;;;;18.48;65.04;99163.56;2145589;82;21064;-69
2021/09/04 08:09:08;;;;;;;20.12;7.00;;;;;;;18.36;64.63;99161.51;2145542;82;21005;-69
2021/09/04 08:12:09;;;;;;;23.05;6.85;;;;;;;18.37;65.45;99165.82;2145902;83;20974;-68
2021/09/04 08:15:11;;;;;;;23.83;6.85;;;;;;;18.65;64.85;99169.53;2145887;83;20982;-69
2021/09/04 08:18:12;;;;;;;21.48;6.83;;;;;;;19.06;64.92;99169.46;2145668;82;20982;-69
2021/09/04 08:21:13;;;;;;;21.68;7.10;;;;;;;19.27;62.27;99173.81;2145959;83;21066;-68
2021/09/04 08:24:15;;;;;;;22.50;7.33;;;;;;;19.29;63.05;99174.00;2145715;82;21005;-69
2021/09/04 08:27:16;;;;;;;20.88;7.17;;;;;;;19.87;62.58;99171.77;2145937;82;21548;-67
2021/09/04 08:30:18;;;;;;;22.30;8.23;;;;;;;20.22;59.07;99173.39;2145761;83;20977;-63
2021/09/04 08:33:19;;;;;;;20.55;7.22;;;;;;;19.94;61.24;99175.17;2145776;83;21025;-67
2021/09/04 08:36:21;;;;;;;23.12;8.08;;;;;;;19.89;60.00;99182.27;2145839;83;21025;-66
2021/09/04 08:39:22;;;;;;;23.35;7.97;;;;;;;19.95;59.06;99180.85;2146016;82;21020;-69
2021/09/04 08:42:24;;;;;;;22.73;7.28;;;;;;;20.13;60.18;99173.78;2146597;82;21546;-65
2021/09/04 08:45:25;;;;;;;20.45;7.22;;;;;;;20.46;58.84;99178.66;2146926;82;20942;-63
2021/09/04 08:48:26;;;;;;;23.85;7.15;;;;;;;20.49;58.02;99181.05;2146783;82;20982;-66
2021/09/04 08:51:28;;;;;;;20.88;6.85;;;;;;;20.34;56.94;99184.21;2143169;82;20981;-68
2021/09/04 08:54:29;;;;;;;23.25;7.70;;;;;;;20.36;57.23;99183.56;2146842;82;20981;-69
2021/09/04 08:57:31;;;;;;;21.33;7.12;;;;;;;20.42;56.95;99178.13;2145878;83;21555;-68
2021/09/04 09:00:32;;;;;;;20.40;7.22;;;;;;;20.40;57.34;99182.75;2143913;83;21037;-70
2021/09/04 09:03:34;;;;;;;20.75;7.20;;;;;;;20.38;58.07;99178.91;2143897;83;21071;-67
2021/09/04 09:06:35;;;;;;;21.23;6.78;;;;;;;20.57;58.24;99175.80;2143449;82;21068;-66
2021/09/04 09:09:36;;;;;;;20.17;6.08;;;;;;;20.95;58.18;99176.58;2143958;82;21000;-70
2021/09/04 09:12:38;;;;;;;18.73;5.87;;;;;;;21.16;55.48;99167.42;2144764;83;21021;-67
2021/09/04 09:15:39;;;;;;;18.60;5.92;;;;;;;21.17;55.42;99171.27;2145560;82;20958;-69
2021/09/04 09:18:41;;;;;;;18.30;5.80;;;;;;;21.18;54.40;99176.13;2145872;82;21555;-67
2021/09/04 09:21:42;;;;;;;18.95;5.90;;;;;;;21.01;52.31;99184.46;2145985;83;20998;-66
2021/09/04 09:24:44;;;;;;;18.42;5.95;;;;;;;20.31;52.97;99171.66;2145896;82;20989;-70
2021/09/04 09:27:45;;;;;;;20.05;5.85;;;;;;;19.97;54.15;99183.72;2146119;82;21036;-67
2021/09/04 09:30:47;;;;;;;18.27;5.70;;;;;;;19.85;54.19;99184.36;2145921;82;20981;-67
2021/09/04 09:33:49;;;;;;;18.62;5.92;;;;;;;19.92;52.74;99178.48;2145917;83;21064;-67
2021/09/04 09:36:50;;;;;;;18.48;5.17;;;;;;;19.92;52.74;99178.48;2145571;82;21032;-69
2021/09/04 09:39:51;;;;;;;18.12;5.50;;;;;;;19.45;53.39;99201.38;2145844;83;20993;-67
2021/09/04 09:42:53;;;;;;;18.32;5.10;;;;;;;19.04;53.92;99195.36;2145873;82;21021;-68
2021/09/04 09:45:55;;;;;;;17.62;5.20;;;;;;;18.75;53.90;99190.81;2145999;82;21061;-69
2021/09/04 09:48:56;;;;;;;18.07;5.17;;;;;;;18.59;54.14;99207.28;2145824;83;21496;-66
2021/09/04 09:51:58;;;;;;;17.15;5.10;;;;;;;18.44;55.54;99201.48;2145875;83;20997;-69
2021/09/04 09:55:00;;;;;;;17.23;5.45;;;;;;;18.46;55.22;99196.89;2145821;83;21556;-67
2021/09/04 09:58:01;;;;;;;19.07;6.20;;;;;;;18.59;56.23;99188.69;2145811;83;20993;-71
2021/09/04 10:01:03;;;;;;;25.65;9.03;;;;;;;19.54;56.43;99183.73;2145743;82;21538;-72
2021/09/04 10:04:04;;;;;;;20.00;6.53;;;;;;;20.51;56.07;99187.06;2146077;83;21290;-70
2021/09/04 10:07:06;;;;;;;21.02;5.60;;;;;;;21.02;50.43;99189.64;2145519;82;21045;-69
2021/09/04 10:10:07;;;;;;;18.20;5.65;;;;;;;21.40;50.94;99186.80;2145943;82;21016;-68
2021/09/04 10:13:08;;;;;;;20.30;5.78;;;;;;;21.44;47.92;99192.17;2145838;82;21029;-67
2021/09/04 10:16:10;;;;;;;16.82;5.08;;;;;;;21.45;46.03;99184.52;2145845;82;21464;-70
2021/09/04 10:19:11;;;;;;;18.42;4.67;;;;;;;21.45;46.03;99184.52;2145919;83;20961;-67
2021/09/04 10:22:13;;;;;;;15.38;4.78;;;;;;;21.41;46.30;99181.81;2145953;82;20986;-70
2021/09/04 10:25:14;;;;;;;16.52;4.65;;;;;;;21.62;45.61;99181.48;2145828;83;21587;-68
2021/09/04 10:28:16;;;;;;;17.73;4.92;;;;;;;21.68;45.74;99184.88;2145687;82;21084;-70
2021/09/04 10:31:17;;;;;;;13.80;4.00;;;;;;;21.97;46.37;99181.05;2145782;83;21476;-71
2021/09/04 10:34:19;;;;;;;14.25;4.37;;;;;;;22.12;43.61;99178.14;2145811;82;20977;-68
2021/09/04 10:37:21;;;;;;;10.45;3.25;;;;;;;22.14;46.10;99183.32;2145467;82;21046;-70
2021/09/04 10:40:23;;;;;;;9.78;3.17;;;;;;;22.12;40.21;99177.28;2145731;83;21041;-69
2021/09/04 10:43:24;;;;;;;12.70;3.58;;;;;;;22.04;39.62;99177.23;2145811;82;21014;-68
2021/09/04 10:46:26;;;;;;;13.18;3.67;;;;;;;21.88;41.31;99182.84;2145732;82;21013;-68
2021/09/04 10:49:27;;;;;;;11.28;3.33;;;;;;;22.02;41.76;99178.73;2145785;83;20986;-70
2021/09/04 10:52:29;;;;;;;12.63;3.10;;;;;;;22.16;42.66;99173.30;2145788;82;21472;-69
2021/09/04 10:55:30;;;;;;;10.63;3.02;;;;;;;22.65;41.76;99174.84;2145660;82;21029;-70
2021/09/04 10:58:32;;;;;;;10.65;3.15;;;;;;;22.93;39.94;99172.39;2145774;83;20992;-67
2021/09/04 11:01:33;;;;;;;11.35;3.42;;;;;;;22.69;37.26;99166.52;2145888;83;21069;-68
2021/09/04 11:04:34;;;;;;;10.38;3.25;;;;;;;22.62;39.75;99171.16;2145766;82;21028;-71
2021/09/04 11:07:36;;;;;;;12.13;3.60;;;;;;;22.86;40.53;99170.89;2145558;83;21519;-67
2021/09/04 11:10:37;;;;;;;7.62;2.62;;;;;;;23.06;38.92;99174.58;2145891;82;21036;-67
2021/09/04 11:13:39;;;;;;;10.85;3.10;;;;;;;23.14;38.84;99168.80;2145761;82;20969;-68
2021/09/04 11:16:40;;;;;;;9.48;3.10;;;;;;;23.25;38.72;99168.95;2145845;83;20985;-68
2021/09/04 11:19:42;;;;;;;7.75;2.80;;;;;;;23.24;37.52;99169.95;2145727;83;21005;-72
2021/09/04 11:22:43;;;;;;;11.57;3.25;;;;;;;23.09;38.12;99175.61;2145371;82;21550;-67
2021/09/04 11:25:45;;;;;;;8.15;2.83;;;;;;;23.32;37.78;99172.63;2145771;82;21016;-72
2021/09/04 11:28:46;;;;;;;8.05;2.70;;;;;;;23.63;38.70;99172.44;2145721;82;21010;-72
2021/09/04 11:31:47;;;;;;;7.53;2.90;;;;;;;23.55;33.12;99166.60;2145858;82;20981;-69
2021/09/04 11:34:49;;;;;;;11.08;2.95;;;;;;;23.30;37.11;99177.81;2145711;82;21033;-73
2021/09/04 11:37:50;;;;;;;12.30;3.12;;;;;;;23.13;37.10;99180.97;2145660;83;21501;-72
2021/09/04 11:40:52;;;;;;;8.05;2.87;;;;;;;22.94;35.83;99170.91;2145735;82;21006;-70
2021/09/04 11:43:53;;;;;;;9.23;2.90;;;;;;;22.85;35.27;99175.90;2145755;83;21467;-70
2021/09/04 11:46:55;;;;;;;7.15;2.67;;;;;;;23.20;38.57;99169.12;2145656;82;21091;-70
2021/09/04 11:49:57;;;;;;;8.65;2.60;;;;;;;23.49;37.37;99170.79;2145286;83;21022;-70
2021/09/04 11:52:58;;;;;;;9.73;2.77;;;;;;;23.55;37.42;99170.62;2145876;83;21037;-67
2021/09/04 11:56:00;;;;;;;10.90;3.70;;;;;;;23.21;34.85;99168.95;2145751;82;20984;-72
2021/09/04 11:59:02;;;;;;;7.70;2.67;;;;;;;22.97;36.11;99173.26;2145688;83;21006;-69
2021/09/04 12:02:04;;;;;;;8.38;2.52;;;;;;;23.27;35.69;99166.94;2145729;82;21049;-72
2021/09/04 12:05:06;;;;;;;4.58;2.30;;;;;;;23.21;37.38;99168.13;2145733;83;21021;-70
2021/09/04 12:08:07;;;;;;;7.55;2.77;;;;;;;23.63;35.46;99157.23;2145611;83;21061;-68
2021/09/04 12:11:09;;;;;;;10.28;2.90;;;;;;;23.94;36.33;99157.84;2145867;82;20965;-69
2021/09/04 12:14:10;;;;;;;8.60;2.45;;;;;;;24.44;37.26;99157.16;2145577;82;21033;-71
2021/09/04 12:17:12;;;;;;;7.53;2.60;;;;;;;24.63;34.81;99160.45;2145691;83;21468;-69
2021/09/04 12:20:13;;;;;;;7.83;2.52;;;;;;;24.60;33.52;99160.29;2145690;82;21009;-68
2021/09/04 12:23:15;;;;;;;11.53;3.17;;;;;;;24.45;33.71;99164.20;2145739;82;21504;-70
2021/09/04 12:26:16;;;;;;;10.70;2.70;;;;;;;24.60;35.65;99162.15;2145847;82;20985;-72
2021/09/04 12:29:18;;;;;;;9.13;2.98;;;;;;;25.12;35.98;99160.11;2145907;83;21492;-69
2021/09/04 12:32:19;;;;;;;8.53;2.65;;;;;;;25.46;33.16;99160.70;2145941;82;21515;-71
2021/09/04 12:35:20;;;;;;;7.03;2.67;;;;;;;25.06;33.38;99160.32;2145976;82;21005;-69
2021/09/04 12:38:22;;;;;;;9.08;2.87;;;;;;;24.60;34.07;99176.38;2145875;83;21056;-66
2021/09/04 12:41:23;;;;;;;10.13;2.90;;;;;;;24.25;34.90;99174.99;2145900;83;21042;-70
2021/09/04 12:44:25;;;;;;;8.20;2.90;;;;;;;23.50;34.21;99175.15;2145947;82;21045;-68
2021/09/04 12:47:26;;;;;;;7.60;2.60;;;;;;;23.41;34.23;99177.48;2145601;83;20997;-69
2021/09/04 12:50:28;;;;;;;8.88;2.95;;;;;;;23.43;34.59;99176.83;2145908;82;21005;-71
2021/09/04 12:53:29;;;;;;;10.50;3.08;;;;;;;23.40;36.34;99177.65;2145922;82;21548;-69
2021/09/04 12:56:30;;;;;;;7.92;2.70;;;;;;;23.48;36.36;99173.13;2145879;82;21029;-72
2021/09/04 12:59:32;;;;;;;8.13;2.72;;;;;;;23.83;35.32;99175.10;2145918;82;21005;-69
2021/09/04 13:02:33;;;;;;;7.42;2.60;;;;;;;24.22;35.87;99169.47;2145888;82;21045;-72
2021/09/04 13:05:35;;;;;;;6.72;2.30;;;;;;;24.38;35.69;99172.61;2145910;82;21000;-73
2021/09/04 13:08:36;;;;;;;7.78;2.77;;;;;;;24.29;32.55;99169.10;2145148;82;21021;-70
2021/09/04 13:11:38;;;;;;;8.40;2.72;;;;;;;24.47;32.82;99171.55;2145582;82;21041;-68
2021/09/04 13:14:39;;;;;;;11.48;2.77;;;;;;;24.02;34.19;99176.59;2145241;82;21548;-71
2021/09/04 13:17:41;;;;;;;12.25;2.80;;;;;;;23.27;34.63;99180.31;2145657;82;21050;-73
2021/09/04 13:20:42;;;;;;;10.72;2.90;;;;;;;23.04;34.90;99184.11;2145529;83;21056;-69
2021/09/04 13:23:43;;;;;;;9.55;2.62;;;;;;;22.97;35.21;99185.77;2145796;82;20993;-68
2021/09/04 13:26:45;;;;;;;11.55;2.72;;;;;;;23.25;34.66;99186.34;2145509;83;21005;-74
2021/09/04 13:29:46;;;;;;;10.45;3.02;;;;;;;23.48;35.94;99187.02;2145545;83;21576;-69
2021/09/04 13:32:48;;;;;;;8.85;2.60;;;;;;;23.76;35.26;99184.83;2145553;83;21540;-69
2021/09/04 13:35:49;;;;;;;5.55;2.27;;;;;;;23.84;33.70;99183.45;2145481;82;21666;-70
2021/09/04 13:38:51;;;;;;;9.90;3.02;;;;;;;23.71;35.37;99180.47;2145732;82;20997;-70
2021/09/04 13:41:52;;;;;;;11.33;3.00;;;;;;;23.94;36.79;99173.92;2145225;82;21081;-72
2021/09/04 13:44:53;;;;;;;10.53;2.75;;;;;;;24.21;36.05;99169.98;2145543;82;21065;-69
2021/09/04 13:47:56;;;;;;;12.30;2.90;;;;;;;24.36;35.09;99178.13;2145666;82;21061;-69
2021/09/04 13:50:58;;;;;;;10.00;2.80;;;;;;;24.52;34.04;99170.53;2145415;83;21030;-71
2021/09/04 13:53:59;;;;;;;9.63;2.33;;;;;;;24.53;34.26;99172.18;2145532;82;21078;-68
2021/09/04 13:57:01;;;;;;;10.32;2.65;;;;;;;23.99;32.82;99177.42;2145653;82;21060;-69
2021/09/04 14:00:02;;;;;;;8.03;2.80;;;;;;;23.68;34.50;99180.81;2145525;82;20986;-73